sensor_id;sensor_type;location;lat;lon;timestamp;pressure;altitude;pressure_sealevel;temperature;humidity
64544;BME280;50936;51.660;5.616;2023-12-04T00:02:00;100906.63;;;24.19;32.43
64544;BME280;50936;51.660;5.616;2023-12-04T00:04:47;100911.88;;;24.14;32.28
64544;BME280;50936;51.660;5.616;2023-12-04T00:07:35;100907.63;;;24.11;32.52
64544;BME280;50936;51.660;5.616;2023-12-04T00:10:22;100896.97;;;24.08;32.50
64544;BME280;50936;51.660;5.616;2023-12-04T00:13:09;100883.97;;;24.02;32.49
64544;BME280;50936;51.660;5.616;2023-12-04T00:15:56;100879.66;;;23.99;33.00
64544;BME280;50936;51.660;5.616;2023-12-04T00:18:43;100875.59;;;23.95;32.64
64544;BME280;50936;51.660;5.616;2023-12-04T00:21:31;100886.16;;;23.92;32.65
64544;BME280;50936;51.660;5.616;2023-12-04T00:24:18;100890.34;;;23.88;32.66
64544;BME280;50936;51.660;5.616;2023-12-04T00:27:05;100885.44;;;23.83;33.13
64544;BME280;50936;51.660;5.616;2023-12-04T00:29:53;100887.72;;;23.79;32.80
64544;BME280;50936;51.660;5.616;2023-12-04T00:32:40;100882.53;;;23.76;32.79
64544;BME280;50936;51.660;5.616;2023-12-04T00:35:27;100876.56;;;23.73;33.22
64544;BME280;50936;51.660;5.616;2023-12-04T00:38:15;100879.50;;;23.71;32.98
64544;BME280;50936;51.660;5.616;2023-12-04T00:41:03;100881.78;;;23.68;32.90
64544;BME280;50936;51.660;5.616;2023-12-04T00:43:50;100869.25;;;23.65;33.14
64544;BME280;50936;51.660;5.616;2023-12-04T00:46:37;100875.81;;;23.64;32.92
64544;BME280;50936;51.660;5.616;2023-12-04T00:49:24;100865.16;;;23.61;33.27
64544;BME280;50936;51.660;5.616;2023-12-04T00:52:11;100873.81;;;23.58;33.22
64544;BME280;50936;51.660;5.616;2023-12-04T00:54:59;100870.41;;;23.56;33.37
64544;BME280;50936;51.660;5.616;2023-12-04T00:57:46;100861.47;;;23.54;32.98
64544;BME280;50936;51.660;5.616;2023-12-04T01:00:33;100854.63;;;23.50;33.34
64544;BME280;50936;51.660;5.616;2023-12-04T01:03:21;100847.41;;;23.49;33.40
64544;BME280;50936;51.660;5.616;2023-12-04T01:06:08;100847.41;;;23.49;33.08
64544;BME280;50936;51.660;5.616;2023-12-04T01:09:06;100839.31;;;23.47;32.96
64544;BME280;50936;51.660;5.616;2023-12-04T01:11:54;100834.19;;;23.44;33.07
64544;BME280;50936;51.660;5.616;2023-12-04T01:14:41;100840.56;;;23.44;33.06
64544;BME280;50936;51.660;5.616;2023-12-04T01:17:28;100836.28;;;23.42;33.03
64544;BME280;50936;51.660;5.616;2023-12-04T01:20:16;100838.19;;;23.41;33.22
64544;BME280;50936;51.660;5.616;2023-12-04T01:23:03;100831.84;;;23.41;32.95
64544;BME280;50936;51.660;5.616;2023-12-04T01:25:50;100822.69;;;23.40;33.38
64544;BME280;50936;51.660;5.616;2023-12-04T01:28:37;100828.59;;;23.37;33.27
64544;BME280;50936;51.660;5.616;2023-12-04T01:31:24;100826.88;;;23.36;33.50
64544;BME280;50936;51.660;5.616;2023-12-04T01:34:11;100817.97;;;23.34;33.62
64544;BME280;50936;51.660;5.616;2023-12-04T01:36:59;100818.31;;;23.31;33.58
64544;BME280;50936;51.660;5.616;2023-12-04T01:39:46;100815.97;;;23.28;33.51
64544;BME280;50936;51.660;5.616;2023-12-04T01:42:33;100813.22;;;23.28;33.67
64544;BME280;50936;51.660;5.616;2023-12-04T01:45:20;100809.78;;;23.26;33.69
64544;BME280;50936;51.660;5.616;2023-12-04T01:48:08;100806.34;;;23.24;33.73
64544;BME280;50936;51.660;5.616;2023-12-04T01:50:57;100807.59;;;23.21;33.70
64544;BME280;50936;51.660;5.616;2023-12-04T01:53:47;100811.41;;;23.50;33.21
64544;BME280;50936;51.660;5.616;2023-12-04T01:56:36;100806.34;;;23.24;33.63
64544;BME280;50936;51.660;5.616;2023-12-04T01:59:25;100799.91;;;23.17;33.60
64544;BME280;50936;51.660;5.616;2023-12-04T02:02:13;100813.00;;;23.15;33.39
64544;BME280;50936;51.660;5.616;2023-12-04T02:05:01;100803.44;;;23.11;33.38
64544;BME280;50936;51.660;5.616;2023-12-04T02:07:49;100793.44;;;23.10;33.82
64544;BME280;50936;51.660;5.616;2023-12-04T02:10:37;100790.91;;;23.08;33.87
64544;BME280;50936;51.660;5.616;2023-12-04T02:13:25;100783.84;;;23.05;33.65
64544;BME280;50936;51.660;5.616;2023-12-04T02:16:14;100785.75;;;23.05;33.95
64544;BME280;50936;51.660;5.616;2023-12-04T02:19:07;100774.91;;;23.03;33.69
64544;BME280;50936;51.660;5.616;2023-12-04T02:21:55;100777.00;;;23.01;33.89
64544;BME280;50936;51.660;5.616;2023-12-04T02:24:43;100769.75;;;23.00;33.82
64544;BME280;50936;51.660;5.616;2023-12-04T02:30:36;100756.41;;;22.97;33.97
64544;BME280;50936;51.660;5.616;2023-12-04T02:33:26;100754.66;;;22.96;33.98
64544;BME280;50936;51.660;5.616;2023-12-04T02:36:15;100750.41;;;22.94;33.96
64544;BME280;50936;51.660;5.616;2023-12-04T02:39:03;100742.34;;;22.92;34.08
64544;BME280;50936;51.660;5.616;2023-12-04T02:41:51;100747.84;;;22.92;34.03
64544;BME280;50936;51.660;5.616;2023-12-04T02:44:38;100743.59;;;22.90;33.86
64544;BME280;50936;51.660;5.616;2023-12-04T02:47:25;100731.88;;;22.87;33.93
64544;BME280;50936;51.660;5.616;2023-12-04T02:50:13;100733.78;;;22.87;33.96
64544;BME280;50936;51.660;5.616;2023-12-04T02:53:00;100726.59;;;22.86;34.08
64544;BME280;50936;51.660;5.616;2023-12-04T02:55:47;100733.13;;;22.85;33.82
64544;BME280;50936;51.660;5.616;2023-12-04T02:58:34;100723.13;;;22.84;33.87
64544;BME280;50936;51.660;5.616;2023-12-04T03:01:22;100727.97;;;22.82;33.99
64544;BME280;50936;51.660;5.616;2023-12-04T03:04:09;100718.88;;;22.81;34.32
64544;BME280;50936;51.660;5.616;2023-12-04T03:06:56;100709.97;;;22.79;34.26
64544;BME280;50936;51.660;5.616;2023-12-04T03:09:43;100705.69;;;22.77;34.22
64544;BME280;50936;51.660;5.616;2023-12-04T03:12:35;100701.03;;;22.77;34.07
64544;BME280;50936;51.660;5.616;2023-12-04T03:15:22;100698.47;;;22.76;34.08
64544;BME280;50936;51.660;5.616;2023-12-04T03:18:10;100700.56;;;22.74;34.10
64544;BME280;50936;51.660;5.616;2023-12-04T03:20:58;100689.56;;;22.74;34.05
64544;BME280;50936;51.660;5.616;2023-12-04T03:23:46;100681.47;;;22.72;34.42
64544;BME280;50936;51.660;5.616;2023-12-04T03:26:33;100682.31;;;22.73;34.21
64544;BME280;50936;51.660;5.616;2023-12-04T03:29:20;100686.13;;;22.72;34.16
64544;BME280;50936;51.660;5.616;2023-12-04T03:32:07;100688.22;;;22.70;34.01
64544;BME280;50936;51.660;5.616;2023-12-04T03:34:54;100682.72;;;22.70;34.28
64544;BME280;50936;51.660;5.616;2023-12-04T03:37:41;100668.28;;;22.67;34.42
64544;BME280;50936;51.660;5.616;2023-12-04T03:40:28;100666.56;;;22.66;34.48
64544;BME280;50936;51.660;5.616;2023-12-04T03:43:16;100664.84;;;22.65;34.43
64544;BME280;50936;51.660;5.616;2023-12-04T03:46:04;100650.44;;;22.63;34.60
64544;BME280;50936;51.660;5.616;2023-12-04T03:48:51;100657.66;;;22.64;34.18
64544;BME280;50936;51.660;5.616;2023-12-04T03:51:38;100654.25;;;22.62;34.15
64544;BME280;50936;51.660;5.616;2023-12-04T03:54:26;100648.75;;;22.62;34.26
64544;BME280;50936;51.660;5.616;2023-12-04T03:57:13;100641.50;;;22.61;34.32
64544;BME280;50936;51.660;5.616;2023-12-04T04:00:01;100634.69;;;22.57;34.22
64544;BME280;50936;51.660;5.616;2023-12-04T04:02:57;100625.38;;;22.58;34.49
64544;BME280;50936;51.660;5.616;2023-12-04T04:05:44;100625.38;;;22.58;34.31
64544;BME280;50936;51.660;5.616;2023-12-04T04:08:31;100625.78;;;22.55;34.30
64544;BME280;50936;51.660;5.616;2023-12-04T04:11:18;100625.78;;;22.55;34.76
64544;BME280;50936;51.660;5.616;2023-12-04T04:14:05;100613.03;;;22.54;34.44
64544;BME280;50936;51.660;5.616;2023-12-04T04:16:53;100607.91;;;22.51;34.36
64544;BME280;50936;51.660;5.616;2023-12-04T04:19:40;100607.91;;;22.51;34.66
64544;BME280;50936;51.660;5.616;2023-12-04T04:22:28;100617.22;;;22.50;34.53
64544;BME280;50936;51.660;5.616;2023-12-04T04:25:16;100608.97;;;22.50;34.37
64544;BME280;50936;51.660;5.616;2023-12-04T04:28:03;100607.25;;;22.49;34.42
64544;BME280;50936;51.660;5.616;2023-12-04T04:30:50;100602.81;;;22.48;34.73
64544;BME280;50936;51.660;5.616;2023-12-04T04:33:37;100590.09;;;22.47;34.48
64544;BME280;50936;51.660;5.616;2023-12-04T04:36:25;100582.88;;;22.46;34.46
64544;BME280;50936;51.660;5.616;2023-12-04T04:39:13;100579.47;;;22.44;34.61
64544;BME280;50936;51.660;5.616;2023-12-04T04:42:00;100575.84;;;22.43;34.41
64544;BME280;50936;51.660;5.616;2023-12-04T04:44:47;100585.16;;;22.42;34.55
64544;BME280;50936;51.660;5.616;2023-12-04T04:47:35;100587.03;;;22.42;34.42
64544;BME280;50936;51.660;5.616;2023-12-04T04:50:22;100576.03;;;22.42;34.87
64544;BME280;50936;51.660;5.616;2023-12-04T04:53:09;100572.63;;;22.40;34.50
64544;BME280;50936;51.660;5.616;2023-12-04T04:55:56;100569.03;;;22.39;34.70
64544;BME280;50936;51.660;5.616;2023-12-04T04:58:44;100570.94;;;22.39;34.74
64544;BME280;50936;51.660;5.616;2023-12-04T05:01:38;100569.22;;;22.38;34.88
64544;BME280;50936;51.660;5.616;2023-12-04T05:04:26;100586.78;;;22.37;34.51
64544;BME280;50936;51.660;5.616;2023-12-04T05:07:13;100580.63;;;22.35;34.54
64544;BME280;50936;51.660;5.616;2023-12-04T05:10:01;100575.13;;;22.35;34.83
64544;BME280;50936;51.660;5.616;2023-12-04T05:12:52;100583.38;;;22.35;34.67
64544;BME280;50936;51.660;5.616;2023-12-04T05:15:39;100574.44;;;22.33;34.79
64544;BME280;50936;51.660;5.616;2023-12-04T05:18:26;100566.59;;;22.29;34.65
64544;BME280;50936;51.660;5.616;2023-12-04T05:21:14;100562.78;;;22.30;34.71
64544;BME280;50936;51.660;5.616;2023-12-04T05:24:01;100559.34;;;22.28;34.52
64544;BME280;50936;51.660;5.616;2023-12-04T05:26:48;100568.28;;;22.30;34.94
64544;BME280;50936;51.660;5.616;2023-12-04T05:29:35;100564.84;;;22.28;34.78
64544;BME280;50936;51.660;5.616;2023-12-04T05:32:22;100552.16;;;22.27;34.84
64544;BME280;50936;51.660;5.616;2023-12-04T05:35:09;100539.44;;;22.26;34.90
64544;BME280;50936;51.660;5.616;2023-12-04T05:37:56;100545.94;;;22.25;34.90
64544;BME280;50936;51.660;5.616;2023-12-04T05:40:44;100541.50;;;22.24;34.70
64544;BME280;50936;51.660;5.616;2023-12-04T05:43:31;100537.91;;;22.24;34.70
64544;BME280;50936;51.660;5.616;2023-12-04T05:46:18;100536.00;;;22.24;34.83
64544;BME280;50936;51.660;5.616;2023-12-04T05:49:05;100526.34;;;22.28;34.90
64544;BME280;50936;51.660;5.616;2023-12-04T05:51:53;100529.53;;;22.47;34.96
64544;BME280;50936;51.660;5.616;2023-12-04T05:54:40;100523.06;;;22.70;35.40
64544;BME280;50936;51.660;5.616;2023-12-04T05:57:27;100522.78;;;23.01;35.26
64544;BME280;50936;51.660;5.616;2023-12-04T06:00:14;100531.38;;;23.34;35.12
64544;BME280;50936;51.660;5.616;2023-12-04T06:03:02;100526.97;;;23.68;35.20
64544;BME280;50936;51.660;5.616;2023-12-04T06:05:49;100528.50;;;23.99;34.96
64544;BME280;50936;51.660;5.616;2023-12-04T06:08:39;100528.69;;;24.26;34.65
64544;BME280;50936;51.660;5.616;2023-12-04T06:11:26;100532.63;;;24.51;33.98
64544;BME280;50936;51.660;5.616;2023-12-04T06:14:13;100525.94;;;24.74;33.75
64544;BME280;50936;51.660;5.616;2023-12-04T06:17:00;100522.16;;;24.95;33.91
64544;BME280;50936;51.660;5.616;2023-12-04T06:19:48;100516.69;;;25.15;33.57
64544;BME280;50936;51.660;5.616;2023-12-04T06:22:35;100505.25;;;25.31;33.30
64544;BME280;50936;51.660;5.616;2023-12-04T06:25:23;100512.25;;;25.47;33.37
64544;BME280;50936;51.660;5.616;2023-12-04T06:28:11;100510.34;;;25.61;33.18
64544;BME280;50936;51.660;5.616;2023-12-04T06:30:59;100504.78;;;25.74;32.80
64544;BME280;50936;51.660;5.616;2023-12-04T06:33:47;100497.53;;;25.87;32.65
64544;BME280;50936;51.660;5.616;2023-12-04T06:36:38;100496.47;;;26.01;32.76
64544;BME280;50936;51.660;5.616;2023-12-04T06:39:32;100483.03;;;26.11;32.51
64544;BME280;50936;51.660;5.616;2023-12-04T06:42:20;100471.72;;;26.20;32.25
64544;BME280;50936;51.660;5.616;2023-12-04T06:45:08;100457.41;;;26.29;32.09
64544;BME280;50936;51.660;5.616;2023-12-04T06:47:56;100459.94;;;26.38;32.11
64544;BME280;50936;51.660;5.616;2023-12-04T06:50:44;100454.34;;;26.44;31.68
64544;BME280;50936;51.660;5.616;2023-12-04T06:53:31;100447.50;;;26.54;31.79
64544;BME280;50936;51.660;5.616;2023-12-04T06:56:19;100442.16;;;26.59;31.60
64544;BME280;50936;51.660;5.616;2023-12-04T06:59:07;100440.44;;;26.64;31.61
64544;BME280;50936;51.660;5.616;2023-12-04T07:01:54;100437.00;;;26.69;31.36
64544;BME280;50936;51.660;5.616;2023-12-04T07:04:41;100425.25;;;26.74;31.38
64544;BME280;50936;51.660;5.616;2023-12-04T07:07:28;100437.13;;;26.81;31.42
64544;BME280;50936;51.660;5.616;2023-12-04T07:10:16;100426.47;;;26.84;31.20
64544;BME280;50936;51.660;5.616;2023-12-04T07:13:03;100414.94;;;26.87;31.18
64544;BME280;50936;51.660;5.616;2023-12-04T07:15:51;100406.41;;;26.89;31.02
64544;BME280;50936;51.660;5.616;2023-12-04T07:18:38;100402.94;;;26.94;31.13
64544;BME280;50936;51.660;5.616;2023-12-04T07:21:25;100411.88;;;26.96;31.16
64544;BME280;50936;51.660;5.616;2023-12-04T07:24:13;100433.38;;;27.00;30.98
64544;BME280;50936;51.660;5.616;2023-12-04T07:27:00;100442.94;;;27.04;30.94
64544;BME280;50936;51.660;5.616;2023-12-04T07:29:47;100444.19;;;27.08;30.99
64544;BME280;50936;51.660;5.616;2023-12-04T07:32:34;100440.97;;;27.12;30.99
64544;BME280;50936;51.660;5.616;2023-12-04T07:35:22;100436.88;;;27.14;30.91
64544;BME280;50936;51.660;5.616;2023-12-04T07:38:09;100439.00;;;27.19;30.71
64544;BME280;50936;51.660;5.616;2023-12-04T07:40:56;100438.91;;;27.25;30.94
64544;BME280;50936;51.660;5.616;2023-12-04T07:43:45;100441.50;;;27.27;30.81
64544;BME280;50936;51.660;5.616;2023-12-04T07:46:32;100434.66;;;27.30;30.96
64544;BME280;50936;51.660;5.616;2023-12-04T07:49:20;100430.34;;;27.34;30.75
64544;BME280;50936;51.660;5.616;2023-12-04T07:52:07;100433.75;;;27.36;30.65
64544;BME280;50936;51.660;5.616;2023-12-04T07:54:55;100440.53;;;27.40;30.49
64544;BME280;50936;51.660;5.616;2023-12-04T07:57:43;100440.31;;;27.41;30.68
64544;BME280;50936;51.660;5.616;2023-12-04T08:00:30;100438.16;;;27.43;30.72
64544;BME280;50936;51.660;5.616;2023-12-04T08:03:18;100434.09;;;27.46;30.74
64544;BME280;50936;51.660;5.616;2023-12-04T08:06:05;100438.09;;;27.50;30.60
64544;BME280;50936;51.660;5.616;2023-12-04T08:08:52;100427.63;;;27.52;30.38
64544;BME280;50936;51.660;5.616;2023-12-04T08:11:41;100434.63;;;27.55;30.44
64544;BME280;50936;51.660;5.616;2023-12-04T08:14:28;100433.16;;;27.52;30.26
64544;BME280;50936;51.660;5.616;2023-12-04T08:17:15;100420.34;;;27.51;30.20
64544;BME280;50936;51.660;5.616;2023-12-04T08:20:03;100416.53;;;27.52;30.16
64544;BME280;50936;51.660;5.616;2023-12-04T08:22:51;100400.31;;;27.49;30.13
64544;BME280;50936;51.660;5.616;2023-12-04T08:25:38;100405.44;;;27.52;30.12
64544;BME280;50936;51.660;5.616;2023-12-04T08:28:26;100409.03;;;27.53;29.99
64544;BME280;50936;51.660;5.616;2023-12-04T08:31:13;100404.97;;;27.55;29.90
64544;BME280;50936;51.660;5.616;2023-12-04T08:34:01;100406.22;;;27.59;30.04
64544;BME280;50936;51.660;5.616;2023-12-04T08:36:48;100406.22;;;27.59;30.17
64544;BME280;50936;51.660;5.616;2023-12-04T08:39:35;100404.06;;;27.61;29.71
64544;BME280;50936;51.660;5.616;2023-12-04T08:42:23;100402.97;;;27.62;30.01
64544;BME280;50936;51.660;5.616;2023-12-04T08:45:10;100397.44;;;27.62;29.81
64544;BME280;50936;51.660;5.616;2023-12-04T08:47:58;100390.78;;;27.63;29.43
64544;BME280;50936;51.660;5.616;2023-12-04T08:50:45;100376.31;;;27.61;29.51
64544;BME280;50936;51.660;5.616;2023-12-04T08:53:32;100378.47;;;27.59;29.37
64544;BME280;50936;51.660;5.616;2023-12-04T08:56:19;100369.09;;;27.60;29.37
64544;BME280;50936;51.660;5.616;2023-12-04T08:59:16;100371.59;;;27.62;29.33
64544;BME280;50936;51.660;5.616;2023-12-04T09:02:04;100368.81;;;27.62;29.36
64544;BME280;50936;51.660;5.616;2023-12-04T09:04:51;100365.00;;;27.63;29.56
64544;BME280;50936;51.660;5.616;2023-12-04T09:07:39;100364.75;;;27.64;29.37
64544;BME280;50936;51.660;5.616;2023-12-04T09:10:46;100357.06;;;27.67;29.62
64544;BME280;50936;51.660;5.616;2023-12-04T09:13:54;100355.72;;;27.69;29.36
64544;BME280;50936;51.660;5.616;2023-12-04T09:16:42;100348.50;;;27.68;29.15
64544;BME280;50936;51.660;5.616;2023-12-04T09:19:29;100348.50;;;27.68;28.97
64544;BME280;50936;51.660;5.616;2023-12-04T09:22:17;100346.78;;;27.67;28.95
64544;BME280;50936;51.660;5.616;2023-12-04T09:25:07;100339.31;;;27.68;28.94
64544;BME280;50936;51.660;5.616;2023-12-04T09:27:57;100349.34;;;27.69;28.89
64544;BME280;50936;51.660;5.616;2023-12-04T09:30:44;100351.91;;;27.70;28.69
64544;BME280;50936;51.660;5.616;2023-12-04T09:33:32;100350.56;;;27.73;28.89
64544;BME280;50936;51.660;5.616;2023-12-04T09:36:19;100341.19;;;27.74;29.03
64544;BME280;50936;51.660;5.616;2023-12-04T09:39:06;100348.41;;;27.75;28.80
64544;BME280;50936;51.660;5.616;2023-12-04T09:41:54;100346.25;;;27.77;28.94
64544;BME280;50936;51.660;5.616;2023-12-04T09:44:42;100347.94;;;27.78;28.87
64544;BME280;50936;51.660;5.616;2023-12-04T09:47:31;100349.16;;;27.82;28.85
64544;BME280;50936;51.660;5.616;2023-12-04T09:50:21;100338.16;;;28.12;28.66
64544;BME280;50936;51.660;5.616;2023-12-04T09:53:12;100340.59;;;27.90;28.92
64544;BME280;50936;51.660;5.616;2023-12-04T09:56:02;100336.78;;;27.84;28.76
64544;BME280;50936;51.660;5.616;2023-12-04T09:58:52;100332.59;;;28.12;28.34
64544;BME280;50936;51.660;5.616;2023-12-04T10:01:46;100331.63;;;27.88;28.87
64544;BME280;50936;51.660;5.616;2023-12-04T10:04:34;100332.06;;;27.85;28.52
64544;BME280;50936;51.660;5.616;2023-12-04T10:07:22;100323.13;;;27.83;28.89
64544;BME280;50936;51.660;5.616;2023-12-04T10:10:09;100325.91;;;27.83;28.61
64544;BME280;50936;51.660;5.616;2023-12-04T10:12:57;100323.13;;;27.83;28.72
64544;BME280;50936;51.660;5.616;2023-12-04T10:15:49;100320.50;;;27.88;28.76
64544;BME280;50936;51.660;5.616;2023-12-04T10:18:38;100324.81;;;27.84;28.78
64544;BME280;50936;51.660;5.616;2023-12-04T10:21:32;100317.28;;;27.91;28.64
64544;BME280;50936;51.660;5.616;2023-12-04T10:24:37;100307.81;;;27.99;28.68
64544;BME280;50936;51.660;5.616;2023-12-04T10:27:26;100311.09;;;27.89;28.80
64544;BME280;50936;51.660;5.616;2023-12-04T10:30:25;100296.94;;;27.97;28.82
64544;BME280;50936;51.660;5.616;2023-12-04T10:33:14;100292.75;;;27.88;28.58
64544;BME280;50936;51.660;5.616;2023-12-04T10:36:02;100292.75;;;27.88;28.69
64544;BME280;50936;51.660;5.616;2023-12-04T10:39:00;100286.06;;;27.96;28.61
64544;BME280;50936;51.660;5.616;2023-12-04T10:41:58;100281.97;;;27.98;28.71
64544;BME280;50936;51.660;5.616;2023-12-04T10:44:50;100271.22;;;27.90;28.59
64544;BME280;50936;51.660;5.616;2023-12-04T10:47:38;100263.91;;;27.89;28.58
64544;BME280;50936;51.660;5.616;2023-12-04T10:50:26;100260.31;;;27.89;28.56
64544;BME280;50936;51.660;5.616;2023-12-04T10:53:16;100261.13;;;27.89;28.54
64544;BME280;50936;51.660;5.616;2023-12-04T10:56:05;100247.50;;;27.88;28.69
64544;BME280;50936;51.660;5.616;2023-12-04T10:58:53;100253.03;;;27.88;28.32
64544;BME280;50936;51.660;5.616;2023-12-04T11:01:44;100254.56;;;27.90;28.51
64544;BME280;50936;51.660;5.616;2023-12-04T11:04:35;100239.59;;;27.91;28.43
64544;BME280;50936;51.660;5.616;2023-12-04T11:07:26;100232.97;;;27.92;28.54
64544;BME280;50936;51.660;5.616;2023-12-04T11:10:15;100228.47;;;27.91;28.41
64544;BME280;50936;51.660;5.616;2023-12-04T11:13:08;100222.69;;;27.93;28.58
64544;BME280;50936;51.660;5.616;2023-12-04T11:16:12;100213.31;;;27.94;28.62
64544;BME280;50936;51.660;5.616;2023-12-04T11:19:17;100212.44;;;27.93;28.34
64544;BME280;50936;51.660;5.616;2023-12-04T11:22:09;100207.91;;;27.80;28.64
64544;BME280;50936;51.660;5.616;2023-12-04T11:24:58;100196.44;;;27.77;28.81
64544;BME280;50936;51.660;5.616;2023-12-04T11:27:49;100197.53;;;27.76;28.51
64544;BME280;50936;51.660;5.616;2023-12-04T11:30:36;100193.03;;;27.75;28.54
64544;BME280;50936;51.660;5.616;2023-12-04T11:33:24;100181.94;;;27.75;28.54
64544;BME280;50936;51.660;5.616;2023-12-04T11:36:12;100186.88;;;27.73;28.55
64544;BME280;50936;51.660;5.616;2023-12-04T11:39:01;100189.44;;;27.74;28.74
64544;BME280;50936;51.660;5.616;2023-12-04T11:41:50;100185.81;;;27.74;28.60
64544;BME280;50936;51.660;5.616;2023-12-04T11:44:40;100186.66;;;27.74;28.66
64544;BME280;50936;51.660;5.616;2023-12-04T11:47:28;100187.13;;;27.71;28.58
64544;BME280;50936;51.660;5.616;2023-12-04T11:50:17;100177.34;;;27.69;28.64
64544;BME280;50936;51.660;5.616;2023-12-04T11:53:06;100176.53;;;27.68;28.61
64544;BME280;50936;51.660;5.616;2023-12-04T11:55:55;100173.38;;;27.64;28.57
64544;BME280;50936;51.660;5.616;2023-12-04T11:58:47;100167.69;;;27.59;28.68
64544;BME280;50936;51.660;5.616;2023-12-04T12:01:36;100165.38;;;27.56;28.77
64544;BME280;50936;51.660;5.616;2023-12-04T12:04:25;100161.38;;;27.52;28.96
64544;BME280;50936;51.660;5.616;2023-12-04T12:07:17;100152.44;;;27.50;29.07
64544;BME280;50936;51.660;5.616;2023-12-04T12:10:05;100146.91;;;27.50;29.20
64544;BME280;50936;51.660;5.616;2023-12-04T12:12:52;100141.34;;;27.50;29.04
64544;BME280;50936;51.660;5.616;2023-12-04T12:15:40;100123.00;;;27.49;29.13
64544;BME280;50936;51.660;5.616;2023-12-04T12:18:27;100124.56;;;27.45;28.95
64544;BME280;50936;51.660;5.616;2023-12-04T12:21:15;100125.03;;;27.42;29.13
64544;BME280;50936;51.660;5.616;2023-12-04T12:24:05;100113.81;;;27.37;28.94
64544;BME280;50936;51.660;5.616;2023-12-04T12:26:54;100109.19;;;27.31;29.10
64544;BME280;50936;51.660;5.616;2023-12-04T12:29:42;100100.72;;;27.25;28.98
64544;BME280;50936;51.660;5.616;2023-12-04T12:32:36;100087.50;;;27.27;29.22
64544;BME280;50936;51.660;5.616;2023-12-04T12:35:24;100077.09;;;27.23;29.11
64544;BME280;50936;51.660;5.616;2023-12-04T12:38:12;100071.78;;;27.21;29.47
64544;BME280;50936;51.660;5.616;2023-12-04T12:40:59;100067.09;;;27.22;29.13
64544;BME280;50936;51.660;5.616;2023-12-04T12:43:46;100060.69;;;27.21;29.07
64544;BME280;50936;51.660;5.616;2023-12-04T12:46:40;100055.16;;;27.21;29.21
64544;BME280;50936;51.660;5.616;2023-12-04T12:49:27;100051.53;;;27.21;29.24
64544;BME280;50936;51.660;5.616;2023-12-04T12:52:26;100046.22;;;27.19;29.28
64544;BME280;50936;51.660;5.616;2023-12-04T12:55:22;100041.47;;;27.26;29.35
64544;BME280;50936;51.660;5.616;2023-12-04T12:58:14;100045.00;;;27.15;29.41
64544;BME280;50936;51.660;5.616;2023-12-04T13:01:02;100049.72;;;27.15;29.30
64544;BME280;50936;51.660;5.616;2023-12-04T13:03:50;100056.56;;;27.12;29.28
64544;BME280;50936;51.660;5.616;2023-12-04T13:06:37;100053.19;;;27.10;29.23
64544;BME280;50936;51.660;5.616;2023-12-04T13:09:25;100047.72;;;27.03;29.31
64544;BME280;50936;51.660;5.616;2023-12-04T13:12:12;100043.72;;;26.99;29.29
64544;BME280;50936;51.660;5.616;2023-12-04T13:15:01;100038.91;;;26.95;29.14
64544;BME280;50936;51.660;5.616;2023-12-04T13:17:48;100033.38;;;26.95;29.15
64544;BME280;50936;51.660;5.616;2023-12-04T13:20:36;100029.72;;;26.94;29.37
64544;BME280;50936;51.660;5.616;2023-12-04T13:23:23;100022.28;;;26.95;29.47
64544;BME280;50936;51.660;5.616;2023-12-04T13:26:11;100020.13;;;26.97;29.56
64544;BME280;50936;51.660;5.616;2023-12-04T13:28:58;100017.72;;;27.00;29.52
64544;BME280;50936;51.660;5.616;2023-12-04T13:31:46;100017.00;;;27.05;29.52
64544;BME280;50936;51.660;5.616;2023-12-04T13:34:37;100006.78;;;27.05;29.52
64544;BME280;50936;51.660;5.616;2023-12-04T13:37:24;99999.91;;;27.08;29.49
64544;BME280;50936;51.660;5.616;2023-12-04T13:40:14;100005.47;;;27.08;29.59
64544;BME280;50936;51.660;5.616;2023-12-04T13:43:03;99994.00;;;27.04;29.45
64544;BME280;50936;51.660;5.616;2023-12-04T13:46:09;99982.53;;;27.01;29.52
64544;BME280;50936;51.660;5.616;2023-12-04T13:48:58;99982.41;;;26.96;29.68
64544;BME280;50936;51.660;5.616;2023-12-04T13:51:46;99984.78;;;26.92;29.69
64544;BME280;50936;51.660;5.616;2023-12-04T13:54:36;99976.72;;;26.91;29.76
64544;BME280;50936;51.660;5.616;2023-12-04T13:57:34;99980.13;;;26.93;29.76
64544;BME280;50936;51.660;5.616;2023-12-04T14:00:31;99969.38;;;26.96;29.75
64544;BME280;50936;51.660;5.616;2023-12-04T14:03:18;99966.97;;;27.00;29.81
64544;BME280;50936;51.660;5.616;2023-12-04T14:06:06;99954.38;;;27.04;29.65
64544;BME280;50936;51.660;5.616;2023-12-04T14:08:57;99963.06;;;27.07;29.83
64544;BME280;50936;51.660;5.616;2023-12-04T14:11:45;99958.94;;;27.10;29.82
64544;BME280;50936;51.660;5.616;2023-12-04T14:14:32;99939.94;;;27.14;29.81
64544;BME280;50936;51.660;5.616;2023-12-04T14:17:24;99929.44;;;27.16;29.67
64544;BME280;50936;51.660;5.616;2023-12-04T14:20:11;99931.97;;;27.17;29.66
64544;BME280;50936;51.660;5.616;2023-12-04T14:23:02;99930.91;;;27.18;29.71
64544;BME280;50936;51.660;5.616;2023-12-04T14:25:49;99919.19;;;27.16;29.84
64544;BME280;50936;51.660;5.616;2023-12-04T14:28:36;99919.69;;;27.13;29.68
64544;BME280;50936;51.660;5.616;2023-12-04T14:31:29;99918.47;;;27.09;29.87
64544;BME280;50936;51.660;5.616;2023-12-04T14:34:17;99930.03;;;27.06;29.72
64544;BME280;50936;51.660;5.616;2023-12-04T14:37:04;99918.34;;;27.04;29.86
64544;BME280;50936;51.660;5.616;2023-12-04T14:39:52;99919.88;;;27.00;29.81
64544;BME280;50936;51.660;5.616;2023-12-04T14:42:39;99913.72;;;26.98;29.85
64544;BME280;50936;51.660;5.616;2023-12-04T14:45:27;99909.75;;;26.94;29.83